Time;durP1;ratioP1;P1;durP2;ratioP2;P2;SDS_P1;SDS_P2;PMS_P1;PMS_P2;Temp;Humidity;BMP_temperature;BMP_pressure;BME280_temperature;BME280_humidity;BME280_pressure;Samples;Min_cycle;Max_cycle;Signal;HPM_P1;HPM_P2
2021/07/29 00:01:14;;;;;;;4.40;2.40;;;24.70;54.00;;;;;;6226685;28;20672;-79
2021/07/29 00:04:15;;;;;;;9.13;2.72;;;24.70;54.00;;;;;;6232902;28;20045;-79
2021/07/29 00:07:16;;;;;;;3.33;2.30;;;24.70;54.00;;;;;;6212820;28;20041;-79
2021/07/29 00:10:17;;;;;;;4.88;2.70;;;24.60;54.00;;;;;;6229134;28;20052;-78
2021/07/29 00:13:18;;;;;;;4.40;2.25;;;24.60;54.10;;;;;;6241864;28;20121;-79
2021/07/29 00:16:21;;;;;;;4.43;2.38;;;24.50;54.10;;;;;;6222403;28;20045;-79
2021/07/29 00:19:22;;;;;;;8.05;2.30;;;24.50;54.20;;;;;;6216083;28;20038;-79
2021/07/29 00:22:23;;;;;;;4.43;2.50;;;24.50;54.20;;;;;;6206258;28;20113;-78
2021/07/29 00:25:27;;;;;;;7.63;2.17;;;24.50;54.20;;;;;;6224016;28;20034;-78
2021/07/29 00:28:28;;;;;;;4.88;2.65;;;24.50;54.20;;;;;;6221327;28;20530;-78
2021/07/29 00:31:33;;;;;;;3.97;2.70;;;24.50;54.10;;;;;;6221132;28;20045;-78
2021/07/29 00:34:34;;;;;;;6.72;2.72;;;24.50;54.10;;;;;;6223456;28;20367;-78
2021/07/29 00:37:39;;;;;;;3.55;2.47;;;24.50;54.20;;;;;;6223611;28;20451;-78
2021/07/29 00:40:40;;;;;;;4.72;2.55;;;24.40;54.20;;;;;;6237484;28;20119;-79
2021/07/29 00:43:42;;;;;;;7.80;2.50;;;24.50;54.40;;;;;;6238241;28;20056;-78
2021/07/29 00:46:43;;;;;;;3.20;2.20;;;24.50;54.50;;;;;;6197118;28;20455;-78
2021/07/29 00:49:45;;;;;;;5.63;2.42;;;24.50;54.50;;;;;;6237288;28;20045;-78
2021/07/29 00:52:47;;;;;;;7.13;2.78;;;24.40;54.60;;;;;;6223361;28;20041;-78
2021/07/29 00:55:49;;;;;;;6.35;3.28;;;24.40;54.60;;;;;;6215541;28;20433;-79
2021/07/29 00:58:50;;;;;;;5.00;2.63;;;24.40;54.60;;;;;;6216525;28;20052;-78
2021/07/29 01:01:51;;;;;;;4.68;2.75;;;24.40;54.70;;;;;;6219892;28;20113;-76
2021/07/29 01:04:52;;;;;;;9.32;3.13;;;24.40;54.80;;;;;;6222057;28;20042;-78
2021/07/29 01:07:53;;;;;;;4.30;2.67;;;24.50;54.90;;;;;;6238444;28;20041;-77
2021/07/29 01:10:54;;;;;;;3.70;2.20;;;24.50;54.80;;;;;;6221147;28;20037;-78
2021/07/29 01:13:55;;;;;;;6.30;2.90;;;24.50;54.80;;;;;;6238120;28;20038;-78
2021/07/29 01:16:56;;;;;;;4.40;2.65;;;24.60;54.90;;;;;;6220539;28;20056;-78
2021/07/29 01:19:58;;;;;;;5.53;2.88;;;24.50;54.90;;;;;;6221670;28;20459;-78
2021/07/29 01:22:59;;;;;;;4.80;2.33;;;24.50;55.10;;;;;;6222041;28;20091;-78
2021/07/29 01:26:00;;;;;;;9.73;2.42;;;24.50;55.30;;;;;;6221298;28;20037;-78
2021/07/29 01:29:01;;;;;;;3.47;2.15;;;24.40;55.50;;;;;;6220404;28;20120;-78
2021/07/29 01:32:02;;;;;;;4.05;2.70;;;24.40;55.60;;;;;;6237447;28;20044;-78
2021/07/29 01:35:04;;;;;;;5.28;2.60;;;24.30;55.50;;;;;;6205218;28;20038;-78
2021/07/29 01:38:05;;;;;;;6.75;2.80;;;24.30;55.70;;;;;;6236600;28;20474;-79
2021/07/29 01:41:06;;;;;;;4.40;2.97;;;24.20;55.70;;;;;;6219564;28;20030;-78
2021/07/29 01:44:07;;;;;;;4.35;2.60;;;24.20;55.80;;;;;;6230435;28;20041;-78
2021/07/29 01:47:08;;;;;;;4.82;2.35;;;24.10;55.90;;;;;;6204249;28;20454;-80
2021/07/29 01:50:10;;;;;;;5.80;2.40;;;24.10;56.10;;;;;;6220099;28;20026;-79
2021/07/29 01:53:11;;;;;;;6.88;2.50;;;24.10;56.00;;;;;;6219713;28;20030;-79
2021/07/29 01:56:14;;;;;;;4.68;2.70;;;24.00;56.00;;;;;;6221175;28;20058;-78
2021/07/29 01:59:15;;;;;;;3.58;2.75;;;24.00;56.10;;;;;;6220307;28;20443;-78
2021/07/29 02:02:16;;;;;;;4.93;2.90;;;24.00;56.70;;;;;;6220905;28;20053;-79
2021/07/29 02:05:17;;;;;;;5.68;3.17;;;23.90;56.20;;;;;;6204905;28;20042;-78
2021/07/29 02:08:18;;;;;;;4.63;2.83;;;23.90;56.40;;;;;;6220519;28;20113;-79
2021/07/29 02:11:19;;;;;;;5.72;2.63;;;23.80;56.50;;;;;;6220260;28;20046;-79
2021/07/29 02:14:22;;;;;;;4.00;2.50;;;23.70;56.60;;;;;;6221566;28;20072;-79
2021/07/29 02:17:23;;;;;;;6.68;2.60;;;23.70;56.70;;;;;;6226890;28;20042;-80
2021/07/29 02:20:25;;;;;;;10.02;2.47;;;23.60;56.70;;;;;;6219643;28;20096;-80
2021/07/29 02:23:25;;;;;;;4.75;2.38;;;23.60;56.80;;;;;;6220379;28;20454;-78
2021/07/29 02:26:27;;;;;;;6.82;2.65;;;23.50;56.70;;;;;;6219132;28;20044;-80
2021/07/29 02:29:28;;;;;;;4.78;2.22;;;23.40;56.70;;;;;;6219724;28;20045;-78
2021/07/29 02:32:29;;;;;;;3.63;2.65;;;23.40;56.50;;;;;;6221232;28;20044;-79
2021/07/29 02:35:30;;;;;;;9.43;2.92;;;23.40;56.40;;;;;;6237031;28;20042;-79
2021/07/29 02:38:31;;;;;;;4.82;3.03;;;23.30;56.20;;;;;;6220510;28;20575;-80
2021/07/29 02:41:33;;;;;;;7.13;2.85;;;23.30;56.20;;;;;;6221284;28;20176;-79
2021/07/29 02:44:35;;;;;;;5.75;3.28;;;23.30;56.10;;;;;;6220025;28;20113;-80
2021/07/29 02:47:36;;;;;;;7.18;3.17;;;23.20;55.90;;;;;;6218810;28;20091;-79
2021/07/29 02:50:37;;;;;;;6.10;2.83;;;23.20;55.90;;;;;;6221940;28;20030;-79
2021/07/29 02:53:38;;;;;;;7.38;2.83;;;23.20;55.90;;;;;;6221043;28;20026;-79
2021/07/29 02:56:39;;;;;;;4.93;3.03;;;23.20;55.80;;;;;;6219827;28;20335;-79
2021/07/29 02:59:40;;;;;;;9.73;2.80;;;23.10;55.80;;;;;;6203923;28;20037;-79
2021/07/29 03:02:41;;;;;;;5.10;2.60;;;23.20;55.80;;;;;;6220731;28;20101;-80
2021/07/29 03:05:42;;;;;;;6.40;2.83;;;23.20;55.70;;;;;;6224443;28;20057;-79
2021/07/29 03:08:43;;;;;;;3.90;2.58;;;23.10;55.60;;;;;;6226864;28;20109;-79
2021/07/29 03:11:45;;;;;;;5.72;2.67;;;23.50;55.90;;;;;;6231922;28;20029;-79
2021/07/29 03:14:46;;;;;;;4.43;2.72;;;23.00;55.80;;;;;;6236351;28;20129;-80
2021/07/29 03:17:47;;;;;;;4.20;2.78;;;22.90;55.80;;;;;;6227206;28;20064;-80
2021/07/29 03:20:48;;;;;;;3.67;2.40;;;22.90;55.90;;;;;;6225021;28;20140;-79
2021/07/29 03:23:49;;;;;;;6.18;2.92;;;23.00;56.00;;;;;;6209819;28;20543;-79
2021/07/29 03:26:50;;;;;;;5.35;3.17;;;23.10;56.00;;;;;;6225610;28;20117;-79
2021/07/29 03:29:51;;;;;;;3.83;2.45;;;23.10;55.70;;;;;;6209898;28;20038;-80
2021/07/29 03:32:52;;;;;;;6.03;2.70;;;23.10;55.40;;;;;;6225175;28;20046;-79
2021/07/29 03:35:53;;;;;;;7.85;2.90;;;23.10;55.40;;;;;;6226282;28;20037;-79
2021/07/29 03:38:54;;;;;;;8.55;2.95;;;23.10;55.40;;;;;;6225656;28;20033;-78
2021/07/29 03:41:55;;;;;;;5.18;2.90;;;23.10;55.50;;;;;;6226312;28;20490;-79
2021/07/29 03:44:57;;;;;;;7.10;2.90;;;23.00;55.60;;;;;;6210512;28;20044;-79
2021/07/29 03:47:59;;;;;;;4.45;3.22;;;23.00;55.70;;;;;;6225874;28;20044;-78
2021/07/29 03:51:00;;;;;;;5.53;2.90;;;23.00;55.90;;;;;;6223975;28;20042;-78
2021/07/29 03:54:01;;;;;;;4.68;3.00;;;23.00;56.00;;;;;;6224756;28;20044;-78
2021/07/29 03:57:03;;;;;;;3.83;2.88;;;22.90;56.00;;;;;;6225254;28;20458;-78
2021/07/29 04:00:05;;;;;;;4.80;2.83;;;22.90;56.10;;;;;;6241077;28;20033;-78
2021/07/29 04:03:13;;;;;;;6.93;2.95;;;22.90;56.20;;;;;;6223994;28;20049;-78
2021/07/29 04:06:18;;;;;;;6.15;3.20;;;22.90;56.30;;;;;;6239735;28;20118;-78
2021/07/29 04:09:19;;;;;;;5.70;3.35;;;22.80;56.40;;;;;;6240475;28;20080;-78
2021/07/29 04:12:20;;;;;;;5.30;3.17;;;22.80;56.50;;;;;;6225032;28;20478;-78
2021/07/29 04:15:21;;;;;;;7.55;2.97;;;22.70;56.60;;;;;;6224532;28;20113;-79
2021/07/29 04:18:22;;;;;;;6.05;3.05;;;22.70;56.80;;;;;;6223111;28;20034;-78
2021/07/29 04:21:23;;;;;;;4.38;3.00;;;22.70;56.80;;;;;;6223463;28;20065;-78
2021/07/29 04:24:26;;;;;;;4.20;2.72;;;22.60;56.80;;;;;;6224538;28;20038;-79
2021/07/29 04:27:27;;;;;;;7.10;2.85;;;22.60;56.90;;;;;;6206762;28;20352;-79
2021/07/29 04:30:28;;;;;;;6.28;2.75;;;22.60;57.00;;;;;;6224229;28;20070;-79
2021/07/29 04:33:43;;;;;;;5.93;2.88;;;22.50;56.90;;;;;;6223155;28;20045;-78
2021/07/29 04:36:45;;;;;;;9.23;3.10;;;22.60;57.00;;;;;;6225432;28;20126;-79
2021/07/29 04:39:46;;;;;;;12.15;3.00;;;22.70;57.10;;;;;;6207095;28;20034;-78
2021/07/29 04:42:47;;;;;;;6.90;2.70;;;22.70;56.80;;;;;;6221797;28;20063;-79
2021/07/29 04:45:48;;;;;;;5.18;2.85;;;22.80;56.60;;;;;;6241018;28;20044;-79
2021/07/29 04:48:49;;;;;;;6.53;3.00;;;22.80;56.60;;;;;;6223621;28;20034;-79
2021/07/29 04:51:50;;;;;;;10.30;3.47;;;22.70;56.80;;;;;;6224795;28;20037;-79
2021/07/29 04:54:51;;;;;;;4.80;3.10;;;22.60;56.80;;;;;;6225200;28;20038;-79
2021/07/29 04:57:52;;;;;;;7.30;3.72;;;22.60;57.50;;;;;;6224171;28;20400;-78
2021/07/29 05:00:53;;;;;;;4.57;3.08;;;22.60;56.90;;;;;;6220608;28;20113;-79
2021/07/29 05:03:54;;;;;;;6.28;3.03;;;22.60;57.00;;;;;;6225785;28;20029;-79
2021/07/29 05:06:55;;;;;;;6.22;3.10;;;22.60;56.90;;;;;;6226594;28;20487;-78
2021/07/29 05:09:56;;;;;;;5.32;2.75;;;22.70;56.90;;;;;;6224820;28;20034;-79
2021/07/29 05:12:57;;;;;;;6.15;2.67;;;22.70;56.80;;;;;;6223800;28;20030;-79
2021/07/29 05:15:59;;;;;;;6.55;3.08;;;22.70;56.60;;;;;;6222689;28;20129;-80
2021/07/29 05:19:00;;;;;;;8.70;3.03;;;22.80;56.60;;;;;;6223807;28;20403;-81
2021/07/29 05:22:02;;;;;;;6.40;2.83;;;22.80;56.50;;;;;;6223340;28;20045;-80
2021/07/29 05:25:03;;;;;;;5.00;2.67;;;22.90;56.40;;;;;;6205802;28;20030;-80
2021/07/29 05:28:04;;;;;;;4.40;2.80;;;22.90;56.40;;;;;;6223444;28;20038;-80
2021/07/29 05:31:12;;;;;;;5.93;3.20;;;23.00;56.20;;;;;;6222846;28;20077;-78
2021/07/29 05:34:13;;;;;;;5.95;2.97;;;23.20;56.20;;;;;;6223282;28;20034;-79
2021/07/29 05:37:14;;;;;;;8.75;3.33;;;23.30;56.00;;;;;;6238763;28;20442;-80
2021/07/29 05:40:15;;;;;;;11.52;3.25;;;23.30;55.90;;;;;;6222329;28;20121;-80
2021/07/29 05:43:16;;;;;;;5.82;2.97;;;23.40;56.00;;;;;;6221889;28;20060;-79
2021/07/29 05:46:17;;;;;;;9.95;3.13;;;23.40;56.00;;;;;;6221510;28;20054;-79
2021/07/29 05:49:18;;;;;;;8.68;3.53;;;23.40;55.80;;;;;;6222942;28;20116;-80
2021/07/29 05:52:21;;;;;;;5.95;3.15;;;23.30;55.70;;;;;;6222479;28;20042;-79
2021/07/29 05:55:22;;;;;;;5.22;3.17;;;23.30;55.80;;;;;;6222360;28;20045;-81
2021/07/29 05:58:23;;;;;;;8.07;3.20;;;23.30;55.90;;;;;;6220236;28;20045;-81
2021/07/29 06:01:24;;;;;;;10.75;3.38;;;23.30;55.80;;;;;;6220917;28;20026;-81
2021/07/29 06:04:26;;;;;;;4.75;2.47;;;23.40;55.60;;;;;;6220362;28;20407;-80
2021/07/29 06:07:28;;;;;;;10.43;2.88;;;23.40;55.50;;;;;;6233061;28;20026;-80
2021/07/29 06:10:29;;;;;;;4.28;2.78;;;23.40;55.40;;;;;;6233603;28;20025;-81
2021/07/29 06:13:31;;;;;;;13.90;3.88;;;23.50;55.40;;;;;;6237092;28;20045;-80
2021/07/29 06:16:32;;;;;;;7.90;3.10;;;23.60;55.30;;;;;;6219368;28;20030;-79
2021/07/29 06:19:34;;;;;;;4.32;2.80;;;23.70;55.20;;;;;;6220594;28;20148;-80
2021/07/29 06:22:35;;;;;;;10.57;3.15;;;23.70;55.30;;;;;;6219307;28;20034;-80
2021/07/29 06:25:40;;;;;;;5.13;3.17;;;23.80;55.40;;;;;;6220627;28;20040;-80
2021/07/29 06:28:42;;;;;;;6.93;3.10;;;23.90;55.40;;;;;;6220593;28;20037;-81
2021/07/29 06:31:44;;;;;;;5.88;3.17;;;24.00;55.50;;;;;;6222989;28;20033;-80
2021/07/29 06:34:45;;;;;;;8.60;2.70;;;24.00;55.50;;;;;;6219423;28;20514;-80
2021/07/29 06:37:46;;;;;;;7.43;3.45;;;24.00;55.60;;;;;;6217050;28;20140;-80
2021/07/29 06:40:47;;;;;;;10.32;3.65;;;24.10;55.50;;;;;;6232549;28;20033;-80
2021/07/29 06:43:48;;;;;;;5.13;2.95;;;24.20;55.30;;;;;;6217258;28;20033;-80
2021/07/29 06:46:49;;;;;;;5.53;3.15;;;24.20;55.10;;;;;;6226582;28;20463;-81
2021/07/29 06:49:53;;;;;;;5.65;2.92;;;24.20;54.80;;;;;;6232330;28;20045;-80
2021/07/29 06:52:54;;;;;;;4.65;2.97;;;24.20;54.80;;;;;;6221424;28;20126;-77
2021/07/29 06:55:58;;;;;;;7.03;3.03;;;24.20;54.80;;;;;;6225666;28;20034;-80
2021/07/29 06:58:59;;;;;;;10.65;2.83;;;24.30;54.60;;;;;;6225292;28;20038;-80
2021/07/29 07:02:00;;;;;;;4.63;2.67;;;24.50;54.40;;;;;;6225044;28;20026;-79
2021/07/29 07:05:02;;;;;;;5.22;3.10;;;24.60;54.10;;;;;;6225522;28;20026;-78
2021/07/29 07:08:03;;;;;;;6.13;3.20;;;24.70;53.90;;;;;;6225414;28;20099;-78
2021/07/29 07:11:07;;;;;;;4.82;3.17;;;24.80;53.80;;;;;;6226397;28;20100;-78
2021/07/29 07:14:09;;;;;;;10.57;4.13;;;24.90;53.50;;;;;;6224048;28;20037;-78
2021/07/29 07:17:10;;;;;;;10.05;3.10;;;25.00;53.40;;;;;;6225047;28;20374;-78
2021/07/29 07:20:11;;;;;;;7.88;3.20;;;25.10;53.30;;;;;;6240830;28;20359;-78
2021/07/29 07:23:12;;;;;;;5.97;2.80;;;25.20;53.70;;;;;;6224751;28;20038;-78
2021/07/29 07:26:19;;;;;;;8.13;3.03;;;25.30;53.00;;;;;;6224010;28;20470;-79
2021/07/29 07:29:21;;;;;;;8.55;3.65;;;25.40;52.80;;;;;;6220363;28;20109;-79
2021/07/29 07:32:22;;;;;;;6.05;3.45;;;25.50;52.60;;;;;;6222050;28;20057;-79
2021/07/29 07:35:23;;;;;;;7.22;3.35;;;25.60;52.40;;;;;;6224266;28;20420;-78
2021/07/29 07:38:24;;;;;;;10.77;4.00;;;25.70;52.20;;;;;;6223940;28;20049;-78
2021/07/29 07:41:25;;;;;;;7.82;4.00;;;25.70;52.10;;;;;;6224794;28;20458;-79
2021/07/29 07:44:26;;;;;;;12.05;3.75;;;25.70;52.00;;;;;;6223425;28;20121;-79
2021/07/29 07:47:29;;;;;;;10.90;4.45;;;25.80;52.00;;;;;;6238873;28;20114;-79
2021/07/29 07:50:30;;;;;;;6.55;2.97;;;25.80;52.00;;;;;;6219868;28;20108;-82
2021/07/29 07:53:31;;;;;;;7.25;3.33;;;25.80;51.80;;;;;;6223534;28;20121;-83
2021/07/29 07:56:32;;;;;;;6.95;3.55;;;25.90;51.60;;;;;;6224320;28;20038;-85
2021/07/29 07:59:37;;;;;;;5.35;3.20;;;26.00;51.40;;;;;;6225021;28;20072;-82
2021/07/29 08:02:38;;;;;;;5.43;3.30;;;26.20;51.20;;;;;;6221725;28;20045;-82
2021/07/29 08:05:40;;;;;;;4.60;3.08;;;26.30;50.80;;;;;;6206861;28;20042;-82
2021/07/29 08:08:42;;;;;;;6.32;3.17;;;26.40;50.20;;;;;;6223183;28;20042;-81
2021/07/29 08:11:43;;;;;;;10.55;3.13;;;26.50;49.60;;;;;;6206943;28;20116;-82
2021/07/29 08:14:44;;;;;;;9.30;3.25;;;26.60;49.30;;;;;;6222462;28;20466;-82
2021/07/29 08:17:46;;;;;;;6.53;3.40;;;26.60;48.90;;;;;;6220320;28;20099;-82
2021/07/29 08:20:47;;;;;;;5.85;3.17;;;26.70;48.60;;;;;;6223743;28;20124;-82
2021/07/29 08:23:48;;;;;;;5.97;3.42;;;26.80;48.30;;;;;;6207511;28;20097;-83
2021/07/29 08:26:49;;;;;;;7.38;3.17;;;26.90;47.90;;;;;;6225291;28;20037;-83
2021/07/29 08:29:51;;;;;;;5.65;3.72;;;27.00;47.70;;;;;;6236160;28;20046;-83
2021/07/29 08:32:52;;;;;;;9.10;3.65;;;27.10;47.70;;;;;;6237518;28;20053;-85
2021/07/29 08:35:53;;;;;;;13.57;3.67;;;27.10;47.60;;;;;;6214232;28;20041;-83
2021/07/29 08:38:54;;;;;;;4.78;3.00;;;27.20;47.50;;;;;;6229684;28;20192;-84
2021/07/29 08:41:56;;;;;;;3.30;2.65;;;27.30;47.40;;;;;;6232197;28;20352;-85
2021/07/29 08:44:59;;;;;;;7.35;3.33;;;27.40;47.10;;;;;;6231274;28;20029;-83
2021/07/29 08:48:05;;;;;;;5.50;3.28;;;27.60;47.00;;;;;;6224855;28;20045;-83
2021/07/29 08:51:07;;;;;;;5.75;3.17;;;27.60;46.80;;;;;;6229055;28;20038;-83
2021/07/29 08:54:13;;;;;;;6.63;3.63;;;27.60;46.60;;;;;;6228700;28;20072;-83
2021/07/29 08:57:14;;;;;;;4.88;3.05;;;27.80;46.40;;;;;;6209968;28;20128;-83
2021/07/29 09:00:17;;;;;;;7.30;3.28;;;27.90;46.30;;;;;;6226835;28;20046;-84
2021/07/29 09:03:20;;;;;;;4.95;3.15;;;27.90;46.00;;;;;;6226100;28;20030;-83
2021/07/29 09:06:21;;;;;;;5.90;3.28;;;27.30;45.60;;;;;;6223076;28;20044;-82
2021/07/29 09:09:45;;;;;;;5.72;3.35;;;28.00;45.80;;;;;;6206147;28;20034;-84
2021/07/29 09:13:05;;;;;;;5.78;3.40;;;28.10;45.80;;;;;;6237127;28;20443;-85
2021/07/29 09:16:10;;;;;;;7.78;3.38;;;28.20;45.60;;;;;;6218293;28;20145;-84
2021/07/29 09:19:29;;;;;;;5.60;3.78;;;28.20;45.30;;;;;;6208768;28;20041;-85
2021/07/29 09:22:32;;;;;;;5.50;3.40;;;28.30;45.20;;;;;;6211011;28;20034;-85
2021/07/29 09:25:33;;;;;;;6.55;3.35;;;28.40;44.90;;;;;;6214334;28;20123;-83
2021/07/29 09:28:38;;;;;;;7.95;3.15;;;28.40;44.90;;;;;;6220503;28;20084;-84
2021/07/29 09:31:40;;;;;;;9.07;5.60;;;28.40;44.80;;;;;;6216469;28;20073;-85
2021/07/29 09:34:51;;;;;;;5.25;3.25;;;28.50;44.80;;;;;;6203213;28;20119;-86
2021/07/29 09:37:52;;;;;;;7.68;3.63;;;28.50;44.80;;;;;;6183923;28;20554;-85
2021/07/29 09:41:06;;;;;;;5.38;3.58;;;28.60;44.60;;;;;;6225598;28;20049;-84
2021/07/29 09:44:16;;;;;;;5.50;3.10;;;28.70;44.40;;;;;;6183242;28;20047;-85
2021/07/29 09:47:24;;;;;;;5.22;3.25;;;28.80;44.40;;;;;;6211411;28;20469;-84
2021/07/29 09:50:25;;;;;;;7.07;3.50;;;28.90;44.20;;;;;;6222654;28;20044;-83
2021/07/29 09:53:33;;;;;;;7.28;3.47;;;28.90;44.00;;;;;;6237552;28;20179;-84
2021/07/29 09:56:34;;;;;;;4.78;3.20;;;29.00;44.00;;;;;;6222547;28;20081;-85
2021/07/29 10:00:04;;;;;;;4.47;3.28;;;29.00;43.50;;;;;;6225333;28;20084;-82
2021/07/29 10:03:14;;;;;;;6.13;3.50;;;29.00;43.70;;;;;;6220089;28;20105;-82
2021/07/29 10:06:21;;;;;;;6.65;3.15;;;29.00;43.60;;;;;;6222980;28;20068;-81
2021/07/29 10:09:22;;;;;;;10.10;3.67;;;29.00;43.60;;;;;;6222101;28;20483;-81
2021/07/29 10:12:30;;;;;;;10.05;3.70;;;29.10;43.70;;;;;;6224662;28;20136;-79
2021/07/29 10:15:45;;;;;;;5.68;3.50;;;29.10;43.40;;;;;;6229440;28;20041;-84
2021/07/29 10:18:52;;;;;;;6.05;3.33;;;29.10;43.40;;;;;;6211861;28;20041;-84
2021/07/29 10:21:52;;;;;;;5.63;3.40;;;29.10;43.00;;;;;;6226970;28;20037;-82
2021/07/29 10:24:53;;;;;;;5.78;3.40;;;29.10;42.80;;;;;;6210146;28;20451;-79
2021/07/29 10:28:30;;;;;;;8.43;4.63;;;29.10;42.90;;;;;;6222524;28;20068;-84
2021/07/29 10:31:48;;;;;;;7.72;3.67;;;29.20;43.00;;;;;;6209251;28;20034;-77
2021/07/29 10:34:52;;;;;;;7.40;3.80;;;29.30;42.70;;;;;;6221148;28;20112;-79
2021/07/29 10:37:54;;;;;;;7.80;4.35;;;29.40;42.60;;;;;;6215848;28;20051;-79
2021/07/29 10:40:55;;;;;;;6.85;3.72;;;29.40;42.30;;;;;;6225365;28;20034;-79
2021/07/29 10:43:57;;;;;;;9.52;3.97;;;29.50;42.30;;;;;;6225508;28;20064;-78
2021/07/29 10:47:00;;;;;;;7.70;3.65;;;29.60;42.10;;;;;;6240668;28;20108;-78
2021/07/29 10:50:01;;;;;;;8.40;4.15;;;29.60;42.10;;;;;;6224665;28;20145;-78
2021/07/29 10:53:02;;;;;;;7.05;3.70;;;29.70;42.20;;;;;;6198407;28;20062;-78
2021/07/29 10:56:03;;;;;;;8.18;4.40;;;29.80;42.10;;;;;;6208090;28;20038;-79
2021/07/29 10:59:04;;;;;;;7.38;3.55;;;29.90;41.90;;;;;;6223883;28;20350;-77
2021/07/29 11:02:09;;;;;;;6.82;3.47;;;30.00;41.50;;;;;;6208196;28;20034;-78
2021/07/29 11:05:10;;;;;;;8.23;3.80;;;30.20;41.50;;;;;;6226802;28;20030;-78
2021/07/29 11:08:12;;;;;;;11.15;4.15;;;31.10;40.30;;;;;;6227346;28;20034;-78
2021/07/29 11:11:13;;;;;;;6.55;3.58;;;32.00;38.70;;;;;;6208839;28;20420;-79
2021/07/29 11:14:23;;;;;;;8.82;4.07;;;33.10;37.30;;;;;;6224897;28;20164;-78
2021/07/29 11:17:24;;;;;;;7.53;3.80;;;33.90;35.80;;;;;;6223725;28;20042;-77
2021/07/29 11:20:26;;;;;;;5.70;3.83;;;34.60;35.00;;;;;;6220302;28;20124;-78
2021/07/29 11:23:35;;;;;;;6.47;3.38;;;35.10;33.90;;;;;;6239035;28;20038;-77
2021/07/29 11:26:44;;;;;;;7.15;3.17;;;35.50;33.10;;;;;;6218329;28;20517;-77
2021/07/29 11:29:53;;;;;;;8.95;3.38;;;35.80;32.80;;;;;;6237193;28;20451;-77
2021/07/29 11:32:56;;;;;;;7.85;3.65;;;36.10;32.10;;;;;;6245965;28;20030;-75
2021/07/29 11:36:07;;;;;;;6.30;3.40;;;36.20;32.00;;;;;;6226338;28;20042;-77
2021/07/29 11:39:08;;;;;;;6.57;3.55;;;36.50;31.80;;;;;;6221378;28;20065;-77
2021/07/29 11:42:09;;;;;;;6.68;3.42;;;36.80;31.40;;;;;;6222266;28;20048;-78
2021/07/29 11:45:33;;;;;;;6.50;3.50;;;36.90;31.20;;;;;;6222369;28;20045;-78
2021/07/29 11:48:35;;;;;;;6.80;3.28;;;37.10;30.90;;;;;;6222491;28;20118;-77
2021/07/29 11:51:36;;;;;;;13.00;3.50;;;37.30;30.80;;;;;;6237296;28;20037;-77
2021/07/29 11:54:38;;;;;;;6.00;3.30;;;37.50;30.50;;;;;;6221929;28;20373;-77
2021/07/29 11:57:39;;;;;;;6.00;3.33;;;37.50;30.40;;;;;;6222311;28;20050;-77
2021/07/29 12:00:41;;;;;;;4.72;3.00;;;37.50;30.40;;;;;;6242612;28;20386;-76
2021/07/29 12:03:49;;;;;;;4.28;3.15;;;37.60;30.30;;;;;;6217290;28;20044;-78
2021/07/29 12:06:51;;;;;;;5.53;3.33;;;37.60;30.10;;;;;;6237640;28;20085;-77
2021/07/29 12:09:52;;;;;;;6.13;3.58;;;37.80;30.00;;;;;;6205129;28;20037;-76
2021/07/29 12:12:54;;;;;;;9.77;3.58;;;37.90;30.00;;;;;;6221754;28;20061;-76
2021/07/29 12:15:59;;;;;;;5.22;3.20;;;38.10;29.80;;;;;;6221064;28;20108;-77
2021/07/29 12:19:03;;;;;;;5.10;3.25;;;38.20;29.60;;;;;;6226711;28;20025;-78
2021/07/29 12:22:23;;;;;;;6.15;3.45;;;38.10;29.60;;;;;;6239904;28;20030;-77
2021/07/29 12:25:31;;;;;;;4.32;3.13;;;38.10;29.60;;;;;;6220335;28;20045;-77
2021/07/29 12:28:42;;;;;;;5.95;2.90;;;38.20;29.60;;;;;;6238012;28;20054;-77
2021/07/29 12:31:45;;;;;;;6.50;3.08;;;38.40;29.40;;;;;;6221062;28;20033;-77
2021/07/29 12:34:47;;;;;;;6.65;3.13;;;38.60;29.00;;;;;;6237633;28;20054;-78
2021/07/29 12:37:57;;;;;;;7.53;3.25;;;38.70;28.80;;;;;;6220025;28;20115;-78
2021/07/29 12:40:59;;;;;;;5.32;2.70;;;38.80;28.50;;;;;;6221502;28;20044;-77
2021/07/29 12:44:11;;;;;;;4.57;2.97;;;39.00;28.40;;;;;;6245748;28;20045;-78
2021/07/29 12:47:12;;;;;;;6.38;3.67;;;39.20;28.30;;;;;;6238041;28;20041;-74
2021/07/29 12:50:36;;;;;;;4.53;3.13;;;39.40;27.70;;;;;;6221970;28;20374;-77
2021/07/29 12:53:37;;;;;;;5.43;2.85;;;39.30;27.70;;;;;;6222499;28;20042;-78
2021/07/29 12:56:39;;;;;;;4.75;2.85;;;39.50;27.60;;;;;;6222159;28;20382;-77
2021/07/29 12:59:40;;;;;;;4.63;2.70;;;39.90;27.10;;;;;;6222179;28;20042;-76
2021/07/29 13:02:41;;;;;;;3.45;2.90;;;40.00;26.70;;;;;;6204904;28;20091;-76
2021/07/29 13:05:42;;;;;;;3.55;2.70;;;40.20;26.60;;;;;;6223365;28;20038;-76
2021/07/29 13:08:43;;;;;;;8.68;3.03;;;40.50;26.40;;;;;;6222090;28;20438;-77
2021/07/29 13:11:45;;;;;;;4.28;2.65;;;40.80;26.10;;;;;;6223011;28;20030;-74
2021/07/29 13:14:46;;;;;;;3.35;2.90;;;41.20;25.60;;;;;;6222039;28;20119;-77
2021/07/29 13:17:47;;;;;;;10.52;3.10;;;41.40;25.20;;;;;;6222539;28;20413;-74
2021/07/29 13:20:48;;;;;;;6.28;3.17;;;41.60;24.90;;;;;;6221268;28;20045;-75
2021/07/29 13:23:49;;;;;;;4.78;2.92;;;41.70;24.80;;;;;;6221596;28;20490;-75
2021/07/29 13:26:50;;;;;;;6.20;3.00;;;42.00;24.50;;;;;;6222223;28;20062;-75
2021/07/29 13:29:51;;;;;;;10.15;3.50;;;42.20;24.20;;;;;;6220432;28;20038;-75
2021/07/29 13:32:52;;;;;;;13.85;3.35;;;42.50;24.00;;;;;;6239895;28;20036;-76
2021/07/29 13:35:53;;;;;;;9.73;3.20;;;43.00;23.80;;;;;;6233378;28;20053;-75
2021/07/29 13:38:54;;;;;;;7.13;2.92;;;43.60;23.30;;;;;;6228724;28;20026;-75
2021/07/29 13:41:55;;;;;;;5.13;2.72;;;44.10;22.90;;;;;;6222465;28;20034;-75
2021/07/29 13:48:17;;;;;;;4.20;2.45;;;45.00;21.90;;;;;;6237390;28;20037;-76
2021/07/29 13:51:18;;;;;;;3.92;2.88;;;45.20;21.80;;;;;;6220085;28;20127;-76
2021/07/29 13:54:19;;;;;;;4.18;2.75;;;45.40;21.60;;;;;;6236770;28;20042;-76
2021/07/29 13:57:19;;;;;;;10.13;2.78;;;45.60;21.30;;;;;;6221404;28;20120;-76
2021/07/29 14:00:21;;;;;;;3.17;2.58;;;45.50;21.40;;;;;;6220150;28;20116;-74
2021/07/29 14:03:22;;;;;;;12.07;3.80;;;45.50;21.40;;;;;;6203741;28;20112;-75
2021/07/29 14:06:23;;;;;;;4.95;2.90;;;45.30;21.50;;;;;;6205366;28;20049;-76
2021/07/29 14:09:24;;;;;;;4.65;2.72;;;45.10;21.70;;;;;;6199354;28;20049;-76
2021/07/29 14:12:26;;;;;;;7.45;3.15;;;45.20;21.40;;;;;;6219549;28;20034;-76
2021/07/29 14:15:27;;;;;;;3.10;2.80;;;44.50;21.80;;;;;;6237555;28;20398;-77
2021/07/29 14:18:28;;;;;;;10.35;2.80;;;43.10;22.70;;;;;;6199484;28;20088;-76
2021/07/29 14:22:51;;;;;;;3.75;2.60;;;41.40;24.00;;;;;;6220725;28;20033;-75
2021/07/29 14:24:50;;;;;;;4.15;2.80;;;40.10;25.10;;;;;;6216148;28;20045;-76
2021/07/29 14:27:52;;;;;;;4.63;2.70;;;39.00;26.30;;;;;;6222253;28;20038;-75
2021/07/29 14:30:54;;;;;;;4.68;2.72;;;38.10;27.10;;;;;;6221784;28;20426;-75
2021/07/29 14:33:55;;;;;;;7.07;3.08;;;37.40;27.90;;;;;;6221147;28;20049;-75
2021/07/29 14:36:57;;;;;;;11.10;3.03;;;36.80;28.50;;;;;;6206373;28;20066;-75
2021/07/29 14:39:58;;;;;;;4.70;2.80;;;36.30;29.20;;;;;;6222990;28;20574;-76
2021/07/29 14:43:00;;;;;;;3.85;2.85;;;35.80;29.60;;;;;;6221360;28;20073;-75
2021/07/29 14:48:38;;;;;;;4.40;2.70;;;35.50;30.00;;;;;;6220593;28;20040;-75
2021/07/29 14:49:25;;;;;;;4.70;2.75;;;35.20;30.40;;;;;;6220238;28;20110;-75
2021/07/29 14:52:29;;;;;;;2.90;2.20;;;35.00;30.90;;;;;;6223043;28;20121;-75
2021/07/29 14:55:33;;;;;;;5.28;2.42;;;35.20;31.30;;;;;;6221831;28;20048;-74
2021/07/29 16:08:16;;;;;;;5.85;2.92;;;42.10;24.10;;;;;;6220506;28;20038;-76
2021/07/29 16:11:17;;;;;;;4.25;2.50;;;42.10;24.40;;;;;;6203175;28;20489;-77
2021/07/29 16:17:22;;;;;;;3.85;2.72;;;41.70;24.20;;;;;;6217982;28;20046;-77
2021/07/29 16:20:23;;;;;;;4.88;3.28;;;41.30;24.40;;;;;;6223187;28;20046;-77
2021/07/29 16:23:24;;;;;;;3.60;2.60;;;41.30;24.40;;;;;;6221748;28;20058;-77
2021/07/29 16:26:28;;;;;;;5.30;2.85;;;41.00;24.50;;;;;;6211069;28;20041;-76
2021/07/29 16:29:29;;;;;;;5.85;2.65;;;40.90;24.70;;;;;;6221771;28;20034;-76
2021/07/29 16:32:30;;;;;;;4.30;2.65;;;40.70;24.90;;;;;;6221331;28;20034;-76
2021/07/29 16:35:30;;;;;;;4.95;3.13;;;40.10;25.50;;;;;;6221795;28;20034;-77
2021/07/29 16:38:31;;;;;;;4.00;2.90;;;39.10;26.40;;;;;;6202148;28;20052;-77
2021/07/29 16:41:33;;;;;;;3.80;3.13;;;38.10;27.40;;;;;;6221799;28;20374;-76
2021/07/29 16:44:35;;;;;;;5.10;2.65;;;37.20;28.30;;;;;;6223502;28;20463;-76
2021/07/29 16:47:36;;;;;;;5.05;2.53;;;36.40;29.10;;;;;;6227551;28;20065;-77
2021/07/29 16:50:37;;;;;;;3.50;2.63;;;35.80;30.00;;;;;;6227178;28;20413;-77
2021/07/29 16:53:38;;;;;;;5.55;2.53;;;35.20;30.80;;;;;;6222086;28;20057;-76
2021/07/29 16:56:38;;;;;;;5.03;2.70;;;34.80;31.50;;;;;;6220945;28;20056;-75
2021/07/29 16:59:39;;;;;;;10.23;3.08;;;34.50;31.90;;;;;;6204670;28;20041;-78
2021/07/29 17:02:40;;;;;;;6.25;3.60;;;34.30;32.30;;;;;;6205166;28;21018;-80
2021/07/29 17:05:41;;;;;;;8.27;3.20;;;34.20;32.50;;;;;;6223641;28;20064;-76